sensor_id;sensor_type;location;lat;lon;timestamp;temperature;humidity
56861;DHT22;42744;51.094;3.490;2022-12-18T00:03:52;-3.90;99.90
56861;DHT22;42744;51.094;3.490;2022-12-18T00:06:19;-3.90;99.90
56861;DHT22;42744;51.094;3.490;2022-12-18T00:08:46;-4.00;99.90
56861;DHT22;42744;51.094;3.490;2022-12-18T00:11:17;-4.00;99.90
56861;DHT22;42744;51.094;3.490;2022-12-18T00:13:44;-4.10;99.90
56861;DHT22;42744;51.094;3.490;2022-12-18T00:16:15;-4.20;99.90
56861;DHT22;42744;51.094;3.490;2022-12-18T00:18:42;-4.30;99.90
56861;DHT22;42744;51.094;3.490;2022-12-18T00:21:10;-4.40;99.90
56861;DHT22;42744;51.094;3.490;2022-12-18T00:23:37;-4.40;99.90
56861;DHT22;42744;51.094;3.490;2022-12-18T00:26:10;-4.50;99.90
56861;DHT22;42744;51.094;3.490;2022-12-18T00:28:36;-4.50;99.90
56861;DHT22;42744;51.094;3.490;2022-12-18T00:31:08;-4.50;99.90
56861;DHT22;42744;51.094;3.490;2022-12-18T00:33:35;-4.50;99.90
56861;DHT22;42744;51.094;3.490;2022-12-18T00:38:28;-4.60;99.90
56861;DHT22;42744;51.094;3.490;2022-12-18T00:40:54;-4.60;99.90
56861;DHT22;42744;51.094;3.490;2022-12-18T00:43:20;-4.70;99.90
56861;DHT22;42744;51.094;3.490;2022-12-18T00:45:46;-4.70;99.90
56861;DHT22;42744;51.094;3.490;2022-12-18T00:48:13;-4.70;99.90
56861;DHT22;42744;51.094;3.490;2022-12-18T00:50:39;-4.70;99.90
56861;DHT22;42744;51.094;3.490;2022-12-18T00:53:05;-4.80;99.90
56861;DHT22;42744;51.094;3.490;2022-12-18T00:55:31;-4.70;99.90
56861;DHT22;42744;51.094;3.490;2022-12-18T00:57:57;-4.80;99.90
56861;DHT22;42744;51.094;3.490;2022-12-18T01:00:23;-4.80;99.90
56861;DHT22;42744;51.094;3.490;2022-12-18T01:02:49;-4.80;99.90
56861;DHT22;42744;51.094;3.490;2022-12-18T01:05:16;-4.80;99.90
56861;DHT22;42744;51.094;3.490;2022-12-18T01:07:42;-4.80;99.90
56861;DHT22;42744;51.094;3.490;2022-12-18T01:10:10;-4.90;99.90
56861;DHT22;42744;51.094;3.490;2022-12-18T01:12:37;-4.90;99.90
56861;DHT22;42744;51.094;3.490;2022-12-18T01:15:04;-5.00;99.90
56861;DHT22;42744;51.094;3.490;2022-12-18T01:17:31;-5.10;99.90
56861;DHT22;42744;51.094;3.490;2022-12-18T01:19:57;-5.10;99.90
56861;DHT22;42744;51.094;3.490;2022-12-18T01:22:22;-5.10;99.90
56861;DHT22;42744;51.094;3.490;2022-12-18T01:24:49;-5.10;99.90
56861;DHT22;42744;51.094;3.490;2022-12-18T01:27:15;-5.20;99.90
56861;DHT22;42744;51.094;3.490;2022-12-18T01:29:41;-5.20;99.90
56861;DHT22;42744;51.094;3.490;2022-12-18T01:32:07;-5.20;99.90
56861;DHT22;42744;51.094;3.490;2022-12-18T01:34:34;-5.10;99.90
56861;DHT22;42744;51.094;3.490;2022-12-18T01:37:04;-5.10;99.90
56861;DHT22;42744;51.094;3.490;2022-12-18T01:39:31;-5.20;99.90
56861;DHT22;42744;51.094;3.490;2022-12-18T01:42:02;-5.20;99.90
56861;DHT22;42744;51.094;3.490;2022-12-18T01:44:55;-5.30;99.90
56861;DHT22;42744;51.094;3.490;2022-12-18T01:52:59;-5.40;99.90
56861;DHT22;42744;51.094;3.490;2022-12-18T01:55:29;-5.40;99.90
56861;DHT22;42744;51.094;3.490;2022-12-18T01:57:58;-5.50;99.90
56861;DHT22;42744;51.094;3.490;2022-12-18T02:00:26;-5.50;99.90
56861;DHT22;42744;51.094;3.490;2022-12-18T02:02:54;-5.50;99.90
56861;DHT22;42744;51.094;3.490;2022-12-18T02:11:28;-5.70;99.90
56861;DHT22;42744;51.094;3.490;2022-12-18T02:17:17;-5.80;99.90
56861;DHT22;42744;51.094;3.490;2022-12-18T02:20:05;-5.80;99.90
56861;DHT22;42744;51.094;3.490;2022-12-18T02:25:26;-5.90;99.90
56861;DHT22;42744;51.094;3.490;2022-12-18T02:27:56;-5.90;99.90
56861;DHT22;42744;51.094;3.490;2022-12-18T02:30:26;-5.90;99.90
56861;DHT22;42744;51.094;3.490;2022-12-18T02:32:56;-5.90;99.90
56861;DHT22;42744;51.094;3.490;2022-12-18T02:35:25;-5.90;99.90
56861;DHT22;42744;51.094;3.490;2022-12-18T02:37:53;-5.90;99.90
56861;DHT22;42744;51.094;3.490;2022-12-18T02:40:22;-6.00;99.90
56861;DHT22;42744;51.094;3.490;2022-12-18T02:42:49;-6.00;99.90
56861;DHT22;42744;51.094;3.490;2022-12-18T02:45:16;-6.10;99.90
56861;DHT22;42744;51.094;3.490;2022-12-18T02:47:47;-6.10;99.90
56861;DHT22;42744;51.094;3.490;2022-12-18T02:53:15;-6.00;99.90
56861;DHT22;42744;51.094;3.490;2022-12-18T03:06:25;-6.10;99.90
56861;DHT22;42744;51.094;3.490;2022-12-18T03:08:58;-6.20;99.90
56861;DHT22;42744;51.094;3.490;2022-12-18T03:11:26;-6.30;99.90
56861;DHT22;42744;51.094;3.490;2022-12-18T03:14:16;-6.40;99.90
56861;DHT22;42744;51.094;3.490;2022-12-18T03:16:43;-6.40;99.90
56861;DHT22;42744;51.094;3.490;2022-12-18T03:19:15;-6.50;99.90
56861;DHT22;42744;51.094;3.490;2022-12-18T03:21:49;-6.50;99.90
56861;DHT22;42744;51.094;3.490;2022-12-18T03:24:18;-6.50;99.90
56861;DHT22;42744;51.094;3.490;2022-12-18T03:26:47;-6.50;99.90
56861;DHT22;42744;51.094;3.490;2022-12-18T03:29:38;-6.50;99.90
56861;DHT22;42744;51.094;3.490;2022-12-18T03:32:24;-6.50;99.90
56861;DHT22;42744;51.094;3.490;2022-12-18T03:34:53;-6.50;99.90
56861;DHT22;42744;51.094;3.490;2022-12-18T03:37:24;-6.50;99.90
56861;DHT22;42744;51.094;3.490;2022-12-18T03:39:50;-6.50;99.90
56861;DHT22;42744;51.094;3.490;2022-12-18T03:42:56;-6.60;99.90
56861;DHT22;42744;51.094;3.490;2022-12-18T03:45:21;-6.60;99.90
56861;DHT22;42744;51.094;3.490;2022-12-18T03:47:53;-6.60;99.90
56861;DHT22;42744;51.094;3.490;2022-12-18T03:50:36;-6.60;99.90
56861;DHT22;42744;51.094;3.490;2022-12-18T03:55:52;-6.50;99.90
56861;DHT22;42744;51.094;3.490;2022-12-18T03:58:25;-6.50;99.90
56861;DHT22;42744;51.094;3.490;2022-12-18T04:00:55;-6.50;99.90
56861;DHT22;42744;51.094;3.490;2022-12-18T04:03:23;-6.50;99.90
56861;DHT22;42744;51.094;3.490;2022-12-18T04:05:51;-6.50;99.90
56861;DHT22;42744;51.094;3.490;2022-12-18T04:08:20;-6.50;99.90
56861;DHT22;42744;51.094;3.490;2022-12-18T04:10:48;-6.50;99.90
56861;DHT22;42744;51.094;3.490;2022-12-18T04:13:22;-6.40;99.90
56861;DHT22;42744;51.094;3.490;2022-12-18T04:15:49;-6.50;99.90
56861;DHT22;42744;51.094;3.490;2022-12-18T04:18:16;-6.50;99.90
56861;DHT22;42744;51.094;3.490;2022-12-18T04:20:42;-6.50;99.90
56861;DHT22;42744;51.094;3.490;2022-12-18T04:23:10;-6.50;99.90
56861;DHT22;42744;51.094;3.490;2022-12-18T04:25:36;-6.50;99.90
56861;DHT22;42744;51.094;3.490;2022-12-18T04:28:03;-6.60;99.90
56861;DHT22;42744;51.094;3.490;2022-12-18T04:30:29;-6.60;99.90
56861;DHT22;42744;51.094;3.490;2022-12-18T04:32:55;-6.60;99.90
56861;DHT22;42744;51.094;3.490;2022-12-18T04:35:21;-6.60;99.90
56861;DHT22;42744;51.094;3.490;2022-12-18T04:37:48;-6.60;99.90
56861;DHT22;42744;51.094;3.490;2022-12-18T04:40:14;-6.60;99.90
56861;DHT22;42744;51.094;3.490;2022-12-18T04:42:41;-6.60;99.90
56861;DHT22;42744;51.094;3.490;2022-12-18T04:45:07;-6.60;99.90
56861;DHT22;42744;51.094;3.490;2022-12-18T04:47:36;-6.60;99.90
56861;DHT22;42744;51.094;3.490;2022-12-18T04:50:02;-6.70;99.90
56861;DHT22;42744;51.094;3.490;2022-12-18T04:52:29;-6.70;99.90
56861;DHT22;42744;51.094;3.490;2022-12-18T04:54:57;-6.70;99.90
56861;DHT22;42744;51.094;3.490;2022-12-18T04:57:23;-6.70;99.90
56861;DHT22;42744;51.094;3.490;2022-12-18T04:59:49;-6.70;99.90
56861;DHT22;42744;51.094;3.490;2022-12-18T05:02:15;-6.70;99.90
56861;DHT22;42744;51.094;3.490;2022-12-18T05:04:41;-6.70;99.90
56861;DHT22;42744;51.094;3.490;2022-12-18T05:07:07;-6.70;99.90
56861;DHT22;42744;51.094;3.490;2022-12-18T05:09:33;-6.70;99.90
56861;DHT22;42744;51.094;3.490;2022-12-18T05:11:59;-6.70;99.90
56861;DHT22;42744;51.094;3.490;2022-12-18T05:14:25;-6.70;99.90
56861;DHT22;42744;51.094;3.490;2022-12-18T05:16:53;-6.70;99.90
56861;DHT22;42744;51.094;3.490;2022-12-18T05:19:22;-6.80;99.90
56861;DHT22;42744;51.094;3.490;2022-12-18T05:21:48;-6.80;99.90
56861;DHT22;42744;51.094;3.490;2022-12-18T05:24:14;-6.80;99.90
56861;DHT22;42744;51.094;3.490;2022-12-18T05:26:40;-6.80;99.90
56861;DHT22;42744;51.094;3.490;2022-12-18T05:29:06;-6.80;99.90
56861;DHT22;42744;51.094;3.490;2022-12-18T05:31:32;-6.80;99.90
56861;DHT22;42744;51.094;3.490;2022-12-18T05:33:58;-6.80;99.90
56861;DHT22;42744;51.094;3.490;2022-12-18T05:36:24;-6.80;99.90
56861;DHT22;42744;51.094;3.490;2022-12-18T05:38:50;-6.80;99.90
56861;DHT22;42744;51.094;3.490;2022-12-18T05:41:16;-6.80;99.90
56861;DHT22;42744;51.094;3.490;2022-12-18T05:43:42;-6.80;99.90
56861;DHT22;42744;51.094;3.490;2022-12-18T05:46:12;-6.80;99.90
56861;DHT22;42744;51.094;3.490;2022-12-18T05:48:39;-6.80;99.90
56861;DHT22;42744;51.094;3.490;2022-12-18T05:51:07;-6.80;99.90
56861;DHT22;42744;51.094;3.490;2022-12-18T05:53:35;-6.80;99.90
56861;DHT22;42744;51.094;3.490;2022-12-18T05:56:03;-6.80;99.90
56861;DHT22;42744;51.094;3.490;2022-12-18T05:58:30;-6.80;99.90
56861;DHT22;42744;51.094;3.490;2022-12-18T06:00:56;-6.80;99.90
56861;DHT22;42744;51.094;3.490;2022-12-18T06:03:23;-6.80;99.90
56861;DHT22;42744;51.094;3.490;2022-12-18T06:05:49;-6.80;99.90
56861;DHT22;42744;51.094;3.490;2022-12-18T06:08:15;-6.80;99.90
56861;DHT22;42744;51.094;3.490;2022-12-18T06:10:41;-6.80;99.90
56861;DHT22;42744;51.094;3.490;2022-12-18T06:13:07;-6.80;99.90
56861;DHT22;42744;51.094;3.490;2022-12-18T06:15:36;-6.80;99.90
56861;DHT22;42744;51.094;3.490;2022-12-18T06:18:03;-6.80;99.90
56861;DHT22;42744;51.094;3.490;2022-12-18T06:20:29;-6.80;99.90
56861;DHT22;42744;51.094;3.490;2022-12-18T06:22:55;-6.90;99.90
56861;DHT22;42744;51.094;3.490;2022-12-18T06:25:21;-6.80;99.90
56861;DHT22;42744;51.094;3.490;2022-12-18T06:27:47;-6.80;99.90
56861;DHT22;42744;51.094;3.490;2022-12-18T06:30:13;-6.80;99.90
56861;DHT22;42744;51.094;3.490;2022-12-18T06:32:40;-6.80;99.90
56861;DHT22;42744;51.094;3.490;2022-12-18T06:35:06;-6.80;99.90
56861;DHT22;42744;51.094;3.490;2022-12-18T06:37:32;-6.80;99.90
56861;DHT22;42744;51.094;3.490;2022-12-18T06:39:58;-6.80;99.90
56861;DHT22;42744;51.094;3.490;2022-12-18T06:42:25;-6.70;99.90
56861;DHT22;42744;51.094;3.490;2022-12-18T06:44:50;-6.80;99.90
56861;DHT22;42744;51.094;3.490;2022-12-18T06:47:18;-6.80;99.90
56861;DHT22;42744;51.094;3.490;2022-12-18T06:49:44;-6.70;99.90
56861;DHT22;42744;51.094;3.490;2022-12-18T06:52:10;-6.80;99.90
56861;DHT22;42744;51.094;3.490;2022-12-18T06:54:36;-6.70;99.90
56861;DHT22;42744;51.094;3.490;2022-12-18T06:57:02;-6.70;99.90
56861;DHT22;42744;51.094;3.490;2022-12-18T06:59:28;-6.60;99.90
56861;DHT22;42744;51.094;3.490;2022-12-18T07:01:54;-6.60;99.90
56861;DHT22;42744;51.094;3.490;2022-12-18T07:04:20;-6.60;99.90
56861;DHT22;42744;51.094;3.490;2022-12-18T07:06:46;-6.60;99.90
56861;DHT22;42744;51.094;3.490;2022-12-18T07:09:12;-6.60;99.90
56861;DHT22;42744;51.094;3.490;2022-12-18T07:11:38;-6.60;99.90
56861;DHT22;42744;51.094;3.490;2022-12-18T07:14:04;-6.60;99.90
56861;DHT22;42744;51.094;3.490;2022-12-18T07:16:30;-6.60;99.90
56861;DHT22;42744;51.094;3.490;2022-12-18T07:18:56;-6.60;99.90
56861;DHT22;42744;51.094;3.490;2022-12-18T07:21:23;-6.60;99.90
56861;DHT22;42744;51.094;3.490;2022-12-18T07:23:50;-6.60;99.90
56861;DHT22;42744;51.094;3.490;2022-12-18T07:26:18;-6.60;99.90
56861;DHT22;42744;51.094;3.490;2022-12-18T07:28:44;-6.60;99.90
56861;DHT22;42744;51.094;3.490;2022-12-18T07:31:13;-6.60;99.90
56861;DHT22;42744;51.094;3.490;2022-12-18T07:33:40;-6.50;99.90
56861;DHT22;42744;51.094;3.490;2022-12-18T07:36:07;-6.50;99.90
56861;DHT22;42744;51.094;3.490;2022-12-18T07:38:36;-6.50;99.90
56861;DHT22;42744;51.094;3.490;2022-12-18T07:41:04;-6.50;99.90
56861;DHT22;42744;51.094;3.490;2022-12-18T07:43:31;-6.50;99.90
56861;DHT22;42744;51.094;3.490;2022-12-18T07:45:57;-6.50;99.90
56861;DHT22;42744;51.094;3.490;2022-12-18T07:48:23;-6.50;99.90
56861;DHT22;42744;51.094;3.490;2022-12-18T07:50:49;-6.50;99.90
56861;DHT22;42744;51.094;3.490;2022-12-18T07:53:15;-6.40;99.90
56861;DHT22;42744;51.094;3.490;2022-12-18T07:55:41;-6.40;99.90
56861;DHT22;42744;51.094;3.490;2022-12-18T07:58:08;-6.40;99.90
56861;DHT22;42744;51.094;3.490;2022-12-18T08:00:35;-6.40;99.90
56861;DHT22;42744;51.094;3.490;2022-12-18T08:03:01;-6.30;99.90
56861;DHT22;42744;51.094;3.490;2022-12-18T08:05:28;-6.30;99.90
56861;DHT22;42744;51.094;3.490;2022-12-18T08:07:54;-6.20;99.90
56861;DHT22;42744;51.094;3.490;2022-12-18T08:10:21;-6.20;99.90
56861;DHT22;42744;51.094;3.490;2022-12-18T08:12:50;-6.10;99.90
56861;DHT22;42744;51.094;3.490;2022-12-18T08:15:17;-6.00;99.90
56861;DHT22;42744;51.094;3.490;2022-12-18T08:17:43;-5.90;99.90
56861;DHT22;42744;51.094;3.490;2022-12-18T08:20:09;-5.80;99.90
56861;DHT22;42744;51.094;3.490;2022-12-18T08:22:35;-5.70;99.90
56861;DHT22;42744;51.094;3.490;2022-12-18T08:25:06;-5.60;99.90
56861;DHT22;42744;51.094;3.490;2022-12-18T08:27:32;-5.50;99.90
56861;DHT22;42744;51.094;3.490;2022-12-18T08:29:58;-5.40;99.90
56861;DHT22;42744;51.094;3.490;2022-12-18T08:32:25;-5.30;99.90
56861;DHT22;42744;51.094;3.490;2022-12-18T08:34:51;-5.20;99.90
56861;DHT22;42744;51.094;3.490;2022-12-18T08:37:17;-5.20;99.90
56861;DHT22;42744;51.094;3.490;2022-12-18T08:39:44;-5.10;99.90
56861;DHT22;42744;51.094;3.490;2022-12-18T08:42:10;-5.00;99.90
56861;DHT22;42744;51.094;3.490;2022-12-18T08:44:55;-4.90;99.90
56861;DHT22;42744;51.094;3.490;2022-12-18T08:47:21;-4.90;99.90
56861;DHT22;42744;51.094;3.490;2022-12-18T08:49:46;-4.80;99.90
56861;DHT22;42744;51.094;3.490;2022-12-18T08:52:13;-4.80;99.90
56861;DHT22;42744;51.094;3.490;2022-12-18T08:54:40;-4.70;99.90
56861;DHT22;42744;51.094;3.490;2022-12-18T08:57:05;-4.70;99.90
56861;DHT22;42744;51.094;3.490;2022-12-18T08:59:32;-4.60;99.90
56861;DHT22;42744;51.094;3.490;2022-12-18T09:01:59;-4.50;99.90
56861;DHT22;42744;51.094;3.490;2022-12-18T09:04:25;-4.50;99.90
56861;DHT22;42744;51.094;3.490;2022-12-18T09:06:54;-4.40;99.90
56861;DHT22;42744;51.094;3.490;2022-12-18T09:09:21;-4.30;99.90
56861;DHT22;42744;51.094;3.490;2022-12-18T09:11:47;-4.30;99.90
56861;DHT22;42744;51.094;3.490;2022-12-18T09:14:14;-4.20;99.90
56861;DHT22;42744;51.094;3.490;2022-12-18T09:16:40;-4.20;99.90
56861;DHT22;42744;51.094;3.490;2022-12-18T09:19:06;-4.20;99.90
56861;DHT22;42744;51.094;3.490;2022-12-18T09:21:34;-4.00;99.90
56861;DHT22;42744;51.094;3.490;2022-12-18T09:24:00;-4.00;99.90
56861;DHT22;42744;51.094;3.490;2022-12-18T09:26:27;-4.00;99.90
56861;DHT22;42744;51.094;3.490;2022-12-18T09:28:54;-3.90;99.90
56861;DHT22;42744;51.094;3.490;2022-12-18T09:31:21;-3.80;99.90
56861;DHT22;42744;51.094;3.490;2022-12-18T09:33:48;-3.80;99.90
56861;DHT22;42744;51.094;3.490;2022-12-18T09:36:15;-3.80;99.90
56861;DHT22;42744;51.094;3.490;2022-12-18T09:38:42;-3.70;99.90
56861;DHT22;42744;51.094;3.490;2022-12-18T09:44:05;-3.60;99.90
56861;DHT22;42744;51.094;3.490;2022-12-18T09:46:39;-3.50;99.90
56861;DHT22;42744;51.094;3.490;2022-12-18T09:49:12;-3.50;99.90
56861;DHT22;42744;51.094;3.490;2022-12-18T09:52:04;-3.50;99.90
56861;DHT22;42744;51.094;3.490;2022-12-18T09:54:41;-3.40;99.90
56861;DHT22;42744;51.094;3.490;2022-12-18T09:57:22;-3.30;99.90
56861;DHT22;42744;51.094;3.490;2022-12-18T10:00:23;-3.30;99.90
56861;DHT22;42744;51.094;3.490;2022-12-18T10:02:58;-3.20;99.90
56861;DHT22;42744;51.094;3.490;2022-12-18T10:16:27;-3.00;99.90
56861;DHT22;42744;51.094;3.490;2022-12-18T10:19:17;-2.90;99.90
56861;DHT22;42744;51.094;3.490;2022-12-18T10:22:10;-2.90;99.90
56861;DHT22;42744;51.094;3.490;2022-12-18T10:27:16;-2.80;99.90
56861;DHT22;42744;51.094;3.490;2022-12-18T10:29:44;-2.70;99.90
56861;DHT22;42744;51.094;3.490;2022-12-18T10:32:19;-2.70;99.90
56861;DHT22;42744;51.094;3.490;2022-12-18T10:34:50;-2.60;99.90
56861;DHT22;42744;51.094;3.490;2022-12-18T10:37:19;-2.60;99.90
56861;DHT22;42744;51.094;3.490;2022-12-18T10:40:10;-2.60;99.90
56861;DHT22;42744;51.094;3.490;2022-12-18T10:42:37;-2.50;99.90
56861;DHT22;42744;51.094;3.490;2022-12-18T10:45:13;-2.50;99.90
56861;DHT22;42744;51.094;3.490;2022-12-18T10:47:47;-2.40;99.90
56861;DHT22;42744;51.094;3.490;2022-12-18T10:50:28;-2.40;99.90
56861;DHT22;42744;51.094;3.490;2022-12-18T10:52:58;-2.40;99.90
56861;DHT22;42744;51.094;3.490;2022-12-18T10:55:34;-2.30;99.90
56861;DHT22;42744;51.094;3.490;2022-12-18T10:58:26;-2.30;99.90
56861;DHT22;42744;51.094;3.490;2022-12-18T11:01:15;-2.20;99.90
56861;DHT22;42744;51.094;3.490;2022-12-18T11:03:45;-2.20;99.90
56861;DHT22;42744;51.094;3.490;2022-12-18T11:06:20;-2.10;99.90
56861;DHT22;42744;51.094;3.490;2022-12-18T11:09:02;-2.20;99.90
56861;DHT22;42744;51.094;3.490;2022-12-18T11:11:29;-2.10;99.90
56861;DHT22;42744;51.094;3.490;2022-12-18T11:16:34;-2.00;99.90
56861;DHT22;42744;51.094;3.490;2022-12-18T11:19:34;-2.00;99.90
56861;DHT22;42744;51.094;3.490;2022-12-18T11:22:03;-2.00;99.90
56861;DHT22;42744;51.094;3.490;2022-12-18T11:24:43;-1.90;99.90
56861;DHT22;42744;51.094;3.490;2022-12-18T11:27:18;-1.90;99.90
56861;DHT22;42744;51.094;3.490;2022-12-18T11:29:44;-1.80;99.90
56861;DHT22;42744;51.094;3.490;2022-12-18T11:37:40;-1.70;99.90
56861;DHT22;42744;51.094;3.490;2022-12-18T11:40:30;-1.70;99.90
56861;DHT22;42744;51.094;3.490;2022-12-18T11:45:31;-1.60;99.90
56861;DHT22;42744;51.094;3.490;2022-12-18T11:48:14;-1.60;99.90
56861;DHT22;42744;51.094;3.490;2022-12-18T11:50:54;-1.50;99.90
56861;DHT22;42744;51.094;3.490;2022-12-18T11:53:21;-1.50;99.90
56861;DHT22;42744;51.094;3.490;2022-12-18T11:58:48;-1.40;99.90
56861;DHT22;42744;51.094;3.490;2022-12-18T12:07:00;-1.30;99.90
56861;DHT22;42744;51.094;3.490;2022-12-18T12:10:11;-1.30;99.90
56861;DHT22;42744;51.094;3.490;2022-12-18T12:12:55;-1.30;99.90
56861;DHT22;42744;51.094;3.490;2022-12-18T12:24:18;-1.00;99.90
56861;DHT22;42744;51.094;3.490;2022-12-18T12:27:13;-1.00;99.90
56861;DHT22;42744;51.094;3.490;2022-12-18T12:32:54;-0.90;99.90
56861;DHT22;42744;51.094;3.490;2022-12-18T12:38:43;-0.80;99.90
56861;DHT22;42744;51.094;3.490;2022-12-18T12:40:57;-0.80;99.90
56861;DHT22;42744;51.094;3.490;2022-12-18T12:43:46;-0.80;99.90
56861;DHT22;42744;51.094;3.490;2022-12-18T12:46:16;-0.70;99.90
56861;DHT22;42744;51.094;3.490;2022-12-18T12:51:45;-0.70;99.90
56861;DHT22;42744;51.094;3.490;2022-12-18T12:54:17;-0.70;99.90
56861;DHT22;42744;51.094;3.490;2022-12-18T12:59:30;-0.60;99.90
56861;DHT22;42744;51.094;3.490;2022-12-18T13:07:32;-0.50;99.90
56861;DHT22;42744;51.094;3.490;2022-12-18T13:13:11;-0.50;99.90
56861;DHT22;42744;51.094;3.490;2022-12-18T13:20:36;-0.50;99.90
56861;DHT22;42744;51.094;3.490;2022-12-18T13:25:45;-0.50;99.90
56861;DHT22;42744;51.094;3.490;2022-12-18T13:28:15;-0.40;99.90
56861;DHT22;42744;51.094;3.490;2022-12-18T13:38:24;-0.50;99.90
56861;DHT22;42744;51.094;3.490;2022-12-18T13:41:01;-0.50;99.90
56861;DHT22;42744;51.094;3.490;2022-12-18T13:43:50;-0.50;99.90
56861;DHT22;42744;51.094;3.490;2022-12-18T13:49:01;-0.40;99.90
56861;DHT22;42744;51.094;3.490;2022-12-18T13:51:31;-0.40;99.90
56861;DHT22;42744;51.094;3.490;2022-12-18T13:54:13;-0.40;99.90
56861;DHT22;42744;51.094;3.490;2022-12-18T13:56:46;-0.40;99.90
56861;DHT22;42744;51.094;3.490;2022-12-18T13:59:25;-0.40;99.90
56861;DHT22;42744;51.094;3.490;2022-12-18T14:01:57;-0.40;99.90
56861;DHT22;42744;51.094;3.490;2022-12-18T14:04:29;-0.40;99.90
56861;DHT22;42744;51.094;3.490;2022-12-18T14:07:19;-0.40;99.90
56861;DHT22;42744;51.094;3.490;2022-12-18T14:09:54;-0.40;99.90
56861;DHT22;42744;51.094;3.490;2022-12-18T14:12:27;-0.40;99.90
56861;DHT22;42744;51.094;3.490;2022-12-18T14:17:52;-0.40;99.90
56861;DHT22;42744;51.094;3.490;2022-12-18T14:20:18;-0.40;99.90
56861;DHT22;42744;51.094;3.490;2022-12-18T14:22:47;-0.40;99.90
56861;DHT22;42744;51.094;3.490;2022-12-18T14:25:20;-0.40;99.90
56861;DHT22;42744;51.094;3.490;2022-12-18T14:30:30;-0.40;99.90
56861;DHT22;42744;51.094;3.490;2022-12-18T14:35:34;-0.40;99.90
56861;DHT22;42744;51.094;3.490;2022-12-18T14:38:20;-0.40;99.90
56861;DHT22;42744;51.094;3.490;2022-12-18T14:40:51;-0.40;99.90
56861;DHT22;42744;51.094;3.490;2022-12-18T14:43:18;-0.40;99.90
56861;DHT22;42744;51.094;3.490;2022-12-18T14:45:44;-0.40;99.90
56861;DHT22;42744;51.094;3.490;2022-12-18T14:51:15;-0.40;99.90
56861;DHT22;42744;51.094;3.490;2022-12-18T14:53:53;-0.40;99.90
56861;DHT22;42744;51.094;3.490;2022-12-18T14:56:31;-0.40;99.90
56861;DHT22;42744;51.094;3.490;2022-12-18T14:59:00;-0.40;99.90
56861;DHT22;42744;51.094;3.490;2022-12-18T15:01:31;-0.40;99.90
56861;DHT22;42744;51.094;3.490;2022-12-18T15:04:00;-0.40;99.90
56861;DHT22;42744;51.094;3.490;2022-12-18T15:06:30;-0.40;99.90
56861;DHT22;42744;51.094;3.490;2022-12-18T15:09:03;-0.40;99.90
56861;DHT22;42744;51.094;3.490;2022-12-18T15:14:21;-0.30;99.90
56861;DHT22;42744;51.094;3.490;2022-12-18T15:16:51;-0.40;99.90
56861;DHT22;42744;51.094;3.490;2022-12-18T15:19:19;-0.30;99.90
56861;DHT22;42744;51.094;3.490;2022-12-18T15:21:46;-0.30;99.90
56861;DHT22;42744;51.094;3.490;2022-12-18T15:24:29;-0.30;99.90
56861;DHT22;42744;51.094;3.490;2022-12-18T15:26:56;-0.30;99.90
56861;DHT22;42744;51.094;3.490;2022-12-18T15:29:22;-0.30;99.90
56861;DHT22;42744;51.094;3.490;2022-12-18T15:32:03;-0.30;99.90
56861;DHT22;42744;51.094;3.490;2022-12-18T15:34:31;-0.30;99.90
56861;DHT22;42744;51.094;3.490;2022-12-18T15:36:58;-0.30;99.90
56861;DHT22;42744;51.094;3.490;2022-12-18T15:39:24;-0.30;99.90
56861;DHT22;42744;51.094;3.490;2022-12-18T15:41:50;-0.30;99.90
56861;DHT22;42744;51.094;3.490;2022-12-18T15:44:34;-0.30;99.90
56861;DHT22;42744;51.094;3.490;2022-12-18T15:47:01;-0.30;99.90
56861;DHT22;42744;51.094;3.490;2022-12-18T15:49:27;-0.30;99.90
56861;DHT22;42744;51.094;3.490;2022-12-18T15:51:58;-0.20;99.90
56861;DHT22;42744;51.094;3.490;2022-12-18T15:54:26;-0.20;99.90
56861;DHT22;42744;51.094;3.490;2022-12-18T15:57:13;-0.20;99.90
56861;DHT22;42744;51.094;3.490;2022-12-18T15:59:50;-0.20;99.90
56861;DHT22;42744;51.094;3.490;2022-12-18T16:02:19;-0.20;99.90
56861;DHT22;42744;51.094;3.490;2022-12-18T16:04:45;-0.20;99.90
56861;DHT22;42744;51.094;3.490;2022-12-18T16:07:12;-0.20;99.90
56861;DHT22;42744;51.094;3.490;2022-12-18T16:09:38;-0.20;99.90
56861;DHT22;42744;51.094;3.490;2022-12-18T16:12:06;-0.20;99.90
56861;DHT22;42744;51.094;3.490;2022-12-18T16:14:32;-0.20;99.90
56861;DHT22;42744;51.094;3.490;2022-12-18T16:17:01;-0.10;99.90
56861;DHT22;42744;51.094;3.490;2022-12-18T16:19:28;-0.10;99.90
56861;DHT22;42744;51.094;3.490;2022-12-18T16:21:56;-0.10;99.90
56861;DHT22;42744;51.094;3.490;2022-12-18T16:24:27;-0.10;99.90
56861;DHT22;42744;51.094;3.490;2022-12-18T16:26:55;-0.10;99.90
56861;DHT22;42744;51.094;3.490;2022-12-18T16:29:24;0.00;99.90
56861;DHT22;42744;51.094;3.490;2022-12-18T16:31:56;-0.10;99.90
56861;DHT22;42744;51.094;3.490;2022-12-18T16:34:25;0.00;99.90
56861;DHT22;42744;51.094;3.490;2022-12-18T16:36:59;0.00;99.90
56861;DHT22;42744;51.094;3.490;2022-12-18T16:39:26;0.00;99.90
56861;DHT22;42744;51.094;3.490;2022-12-18T16:41:53;0.00;99.90
56861;DHT22;42744;51.094;3.490;2022-12-18T16:44:19;0.00;99.90
56861;DHT22;42744;51.094;3.490;2022-12-18T16:46:46;0.00;99.90
56861;DHT22;42744;51.094;3.490;2022-12-18T16:49:14;0.10;99.90
56861;DHT22;42744;51.094;3.490;2022-12-18T16:51:40;0.00;99.90
56861;DHT22;42744;51.094;3.490;2022-12-18T16:54:07;0.10;99.90
56861;DHT22;42744;51.094;3.490;2022-12-18T16:56:40;0.10;99.90
56861;DHT22;42744;51.094;3.490;2022-12-18T16:59:10;0.10;99.90
56861;DHT22;42744;51.094;3.490;2022-12-18T17:01:37;0.10;99.90
56861;DHT22;42744;51.094;3.490;2022-12-18T17:04:05;0.10;99.90
56861;DHT22;42744;51.094;3.490;2022-12-18T17:06:34;0.10;99.90
56861;DHT22;42744;51.094;3.490;2022-12-18T17:09:03;0.10;99.90
56861;DHT22;42744;51.094;3.490;2022-12-18T17:11:31;0.10;99.90
56861;DHT22;42744;51.094;3.490;2022-12-18T17:13:58;0.20;99.90
56861;DHT22;42744;51.094;3.490;2022-12-18T17:16:24;0.20;99.90
56861;DHT22;42744;51.094;3.490;2022-12-18T17:18:51;0.20;99.90
56861;DHT22;42744;51.094;3.490;2022-12-18T17:21:18;0.20;99.90
56861;DHT22;42744;51.094;3.490;2022-12-18T17:23:44;0.20;99.90
56861;DHT22;42744;51.094;3.490;2022-12-18T17:26:11;0.30;99.90
56861;DHT22;42744;51.094;3.490;2022-12-18T17:28:39;0.30;99.90
56861;DHT22;42744;51.094;3.490;2022-12-18T17:31:22;0.30;99.90
56861;DHT22;42744;51.094;3.490;2022-12-18T17:33:49;0.30;99.90
56861;DHT22;42744;51.094;3.490;2022-12-18T17:36:16;0.30;99.90
56861;DHT22;42744;51.094;3.490;2022-12-18T17:38:42;0.30;99.90
56861;DHT22;42744;51.094;3.490;2022-12-18T17:41:12;0.40;99.90
56861;DHT22;42744;51.094;3.490;2022-12-18T17:43:38;0.40;99.90
56861;DHT22;42744;51.094;3.490;2022-12-18T17:46:12;0.40;99.90
56861;DHT22;42744;51.094;3.490;2022-12-18T17:48:38;0.40;99.90
56861;DHT22;42744;51.094;3.490;2022-12-18T17:51:06;0.40;99.90
56861;DHT22;42744;51.094;3.490;2022-12-18T17:53:36;0.40;99.90
56861;DHT22;42744;51.094;3.490;2022-12-18T17:56:04;0.40;99.90
56861;DHT22;42744;51.094;3.490;2022-12-18T17:58:32;0.40;99.90
56861;DHT22;42744;51.094;3.490;2022-12-18T18:00:59;0.50;99.90
56861;DHT22;42744;51.094;3.490;2022-12-18T18:03:25;0.40;99.90
56861;DHT22;42744;51.094;3.490;2022-12-18T18:05:55;0.50;99.90